sensor_id;sensor_type;location;lat;lon;timestamp;P1;durP1;ratioP1;P2;durP2;ratioP2
11935;SDS011;6027;48.576;9.180;2022-11-30T00:00:16;37.33;;;29.07;;
11935;SDS011;6027;48.576;9.180;2022-11-30T00:02:44;41.87;;;29.33;;
11935;SDS011;6027;48.576;9.180;2022-11-30T00:05:10;37.73;;;28.17;;
11935;SDS011;6027;48.576;9.180;2022-11-30T00:07:36;38.60;;;29.83;;
11935;SDS011;6027;48.576;9.180;2022-11-30T00:10:01;37.27;;;29.53;;
11935;SDS011;6027;48.576;9.180;2022-11-30T00:12:27;38.73;;;29.40;;
11935;SDS011;6027;48.576;9.180;2022-11-30T00:14:53;34.90;;;27.80;;
11935;SDS011;6027;48.576;9.180;2022-11-30T00:17:18;37.97;;;29.25;;
11935;SDS011;6027;48.576;9.180;2022-11-30T00:19:44;42.23;;;29.30;;
11935;SDS011;6027;48.576;9.180;2022-11-30T00:22:09;39.70;;;28.53;;
11935;SDS011;6027;48.576;9.180;2022-11-30T00:24:35;39.47;;;29.43;;
11935;SDS011;6027;48.576;9.180;2022-11-30T00:27:00;37.33;;;28.30;;
11935;SDS011;6027;48.576;9.180;2022-11-30T00:29:25;39.20;;;28.80;;
11935;SDS011;6027;48.576;9.180;2022-11-30T00:31:51;38.50;;;30.17;;
11935;SDS011;6027;48.576;9.180;2022-11-30T00:34:16;38.07;;;28.83;;
11935;SDS011;6027;48.576;9.180;2022-11-30T00:36:42;39.07;;;28.80;;
11935;SDS011;6027;48.576;9.180;2022-11-30T00:39:07;35.85;;;28.88;;
11935;SDS011;6027;48.576;9.180;2022-11-30T00:44:00;40.67;;;28.67;;
11935;SDS011;6027;48.576;9.180;2022-11-30T00:46:26;37.07;;;29.17;;
11935;SDS011;6027;48.576;9.180;2022-11-30T00:48:51;39.30;;;28.77;;
11935;SDS011;6027;48.576;9.180;2022-11-30T00:51:16;39.30;;;28.87;;
11935;SDS011;6027;48.576;9.180;2022-11-30T00:53:43;36.43;;;27.63;;
11935;SDS011;6027;48.576;9.180;2022-11-30T00:56:08;35.10;;;26.67;;
11935;SDS011;6027;48.576;9.180;2022-11-30T00:58:34;38.77;;;27.37;;
11935;SDS011;6027;48.576;9.180;2022-11-30T01:01:00;36.63;;;27.60;;
11935;SDS011;6027;48.576;9.180;2022-11-30T01:03:26;35.50;;;26.63;;
11935;SDS011;6027;48.576;9.180;2022-11-30T01:05:51;34.30;;;26.13;;
11935;SDS011;6027;48.576;9.180;2022-11-30T01:08:17;35.20;;;26.17;;
11935;SDS011;6027;48.576;9.180;2022-11-30T01:10:42;34.93;;;26.23;;
11935;SDS011;6027;48.576;9.180;2022-11-30T01:13:09;32.80;;;24.97;;
11935;SDS011;6027;48.576;9.180;2022-11-30T01:15:41;32.83;;;25.00;;
11935;SDS011;6027;48.576;9.180;2022-11-30T01:18:07;32.33;;;25.57;;
11935;SDS011;6027;48.576;9.180;2022-11-30T01:20:33;33.60;;;24.67;;
11935;SDS011;6027;48.576;9.180;2022-11-30T01:22:59;32.20;;;25.73;;
11935;SDS011;6027;48.576;9.180;2022-11-30T01:25:25;34.97;;;26.27;;
11935;SDS011;6027;48.576;9.180;2022-11-30T01:27:50;33.93;;;25.10;;
11935;SDS011;6027;48.576;9.180;2022-11-30T01:30:16;34.80;;;26.33;;
11935;SDS011;6027;48.576;9.180;2022-11-30T01:32:41;36.00;;;25.73;;
11935;SDS011;6027;48.576;9.180;2022-11-30T01:35:08;32.73;;;25.47;;
11935;SDS011;6027;48.576;9.180;2022-11-30T01:37:34;35.58;;;25.50;;
11935;SDS011;6027;48.576;9.180;2022-11-30T01:39:59;34.50;;;23.63;;
11935;SDS011;6027;48.576;9.180;2022-11-30T01:42:25;32.90;;;24.60;;
11935;SDS011;6027;48.576;9.180;2022-11-30T01:47:19;31.43;;;23.83;;
11935;SDS011;6027;48.576;9.180;2022-11-30T01:49:50;31.07;;;22.83;;
11935;SDS011;6027;48.576;9.180;2022-11-30T01:52:22;31.53;;;22.90;;
11935;SDS011;6027;48.576;9.180;2022-11-30T01:54:58;29.37;;;22.90;;
11935;SDS011;6027;48.576;9.180;2022-11-30T01:57:37;28.53;;;23.47;;
11935;SDS011;6027;48.576;9.180;2022-11-30T02:00:09;31.77;;;23.80;;
11935;SDS011;6027;48.576;9.180;2022-11-30T02:02:46;29.20;;;23.20;;
11935;SDS011;6027;48.576;9.180;2022-11-30T02:05:13;27.63;;;21.00;;
11935;SDS011;6027;48.576;9.180;2022-11-30T02:07:40;26.67;;;21.20;;
11935;SDS011;6027;48.576;9.180;2022-11-30T02:10:11;26.93;;;20.73;;
11935;SDS011;6027;48.576;9.180;2022-11-30T02:15:45;27.37;;;20.53;;
11935;SDS011;6027;48.576;9.180;2022-11-30T02:18:22;26.47;;;21.10;;
11935;SDS011;6027;48.576;9.180;2022-11-30T02:20:58;27.80;;;21.23;;
11935;SDS011;6027;48.576;9.180;2022-11-30T02:23:55;25.93;;;20.77;;
11935;SDS011;6027;48.576;9.180;2022-11-30T02:26:55;26.67;;;21.02;;
11935;SDS011;6027;48.576;9.180;2022-11-30T02:29:24;27.13;;;20.90;;
11935;SDS011;6027;48.576;9.180;2022-11-30T02:32:19;25.43;;;20.23;;
11935;SDS011;6027;48.576;9.180;2022-11-30T02:34:49;29.40;;;21.53;;
11935;SDS011;6027;48.576;9.180;2022-11-30T02:37:17;25.90;;;20.43;;
11935;SDS011;6027;48.576;9.180;2022-11-30T02:39:44;25.33;;;20.33;;
11935;SDS011;6027;48.576;9.180;2022-11-30T02:42:13;23.77;;;19.07;;
11935;SDS011;6027;48.576;9.180;2022-11-30T02:44:42;26.93;;;20.17;;
11935;SDS011;6027;48.576;9.180;2022-11-30T02:52:09;26.20;;;19.20;;
11935;SDS011;6027;48.576;9.180;2022-11-30T02:54:35;24.70;;;19.60;;
11935;SDS011;6027;48.576;9.180;2022-11-30T02:57:01;24.23;;;19.30;;
11935;SDS011;6027;48.576;9.180;2022-11-30T02:59:26;23.20;;;18.50;;
11935;SDS011;6027;48.576;9.180;2022-11-30T03:01:53;24.23;;;17.90;;
11935;SDS011;6027;48.576;9.180;2022-11-30T03:04:18;23.27;;;18.35;;
11935;SDS011;6027;48.576;9.180;2022-11-30T03:06:43;25.37;;;19.13;;
11935;SDS011;6027;48.576;9.180;2022-11-30T03:09:09;22.40;;;18.15;;
11935;SDS011;6027;48.576;9.180;2022-11-30T03:11:34;23.17;;;18.03;;
11935;SDS011;6027;48.576;9.180;2022-11-30T03:14:01;24.97;;;18.10;;
11935;SDS011;6027;48.576;9.180;2022-11-30T03:16:27;21.03;;;17.67;;
11935;SDS011;6027;48.576;9.180;2022-11-30T03:18:52;22.37;;;18.07;;
11935;SDS011;6027;48.576;9.180;2022-11-30T03:21:18;21.45;;;17.60;;
11935;SDS011;6027;48.576;9.180;2022-11-30T03:23:43;21.90;;;17.00;;
11935;SDS011;6027;48.576;9.180;2022-11-30T03:26:09;22.75;;;17.52;;
11935;SDS011;6027;48.576;9.180;2022-11-30T03:28:35;21.45;;;17.13;;
11935;SDS011;6027;48.576;9.180;2022-11-30T03:31:01;21.35;;;17.88;;
11935;SDS011;6027;48.576;9.180;2022-11-30T03:33:26;22.25;;;17.70;;
11935;SDS011;6027;48.576;9.180;2022-11-30T03:36:02;21.70;;;17.43;;
11935;SDS011;6027;48.576;9.180;2022-11-30T03:38:32;20.10;;;16.92;;
11935;SDS011;6027;48.576;9.180;2022-11-30T03:41:03;19.53;;;16.80;;
11935;SDS011;6027;48.576;9.180;2022-11-30T03:43:30;25.53;;;18.37;;
11935;SDS011;6027;48.576;9.180;2022-11-30T03:45:56;21.60;;;16.63;;
11935;SDS011;6027;48.576;9.180;2022-11-30T03:48:21;18.43;;;15.83;;
11935;SDS011;6027;48.576;9.180;2022-11-30T03:50:47;19.80;;;15.57;;
11935;SDS011;6027;48.576;9.180;2022-11-30T03:53:18;19.05;;;14.75;;
11935;SDS011;6027;48.576;9.180;2022-11-30T03:55:44;19.13;;;14.87;;
11935;SDS011;6027;48.576;9.180;2022-11-30T03:58:10;19.35;;;15.25;;
11935;SDS011;6027;48.576;9.180;2022-11-30T04:00:36;18.03;;;15.23;;
11935;SDS011;6027;48.576;9.180;2022-11-30T04:03:02;18.90;;;16.53;;
11935;SDS011;6027;48.576;9.180;2022-11-30T04:05:28;20.97;;;16.80;;
11935;SDS011;6027;48.576;9.180;2022-11-30T04:07:54;19.87;;;15.73;;
11935;SDS011;6027;48.576;9.180;2022-11-30T04:10:19;19.33;;;15.80;;
11935;SDS011;6027;48.576;9.180;2022-11-30T04:12:45;20.40;;;16.17;;
11935;SDS011;6027;48.576;9.180;2022-11-30T04:15:10;23.17;;;17.27;;
11935;SDS011;6027;48.576;9.180;2022-11-30T04:17:35;21.55;;;17.05;;
11935;SDS011;6027;48.576;9.180;2022-11-30T04:20:01;20.57;;;16.40;;
11935;SDS011;6027;48.576;9.180;2022-11-30T04:22:28;22.13;;;17.73;;
11935;SDS011;6027;48.576;9.180;2022-11-30T04:24:53;20.67;;;16.33;;
11935;SDS011;6027;48.576;9.180;2022-11-30T04:27:19;23.63;;;17.13;;
11935;SDS011;6027;48.576;9.180;2022-11-30T04:29:44;21.23;;;16.53;;
11935;SDS011;6027;48.576;9.180;2022-11-30T04:32:10;17.65;;;15.20;;
11935;SDS011;6027;48.576;9.180;2022-11-30T04:34:35;20.30;;;16.95;;
11935;SDS011;6027;48.576;9.180;2022-11-30T04:37:01;20.27;;;16.67;;
11935;SDS011;6027;48.576;9.180;2022-11-30T04:39:26;21.52;;;17.15;;
11935;SDS011;6027;48.576;9.180;2022-11-30T04:41:51;19.70;;;16.80;;
11935;SDS011;6027;48.576;9.180;2022-11-30T04:44:17;21.00;;;16.73;;
11935;SDS011;6027;48.576;9.180;2022-11-30T04:46:42;20.93;;;16.73;;
11935;SDS011;6027;48.576;9.180;2022-11-30T04:49:08;19.95;;;16.73;;
11935;SDS011;6027;48.576;9.180;2022-11-30T04:51:33;20.70;;;16.43;;
11935;SDS011;6027;48.576;9.180;2022-11-30T04:53:59;20.03;;;16.00;;
11935;SDS011;6027;48.576;9.180;2022-11-30T04:56:24;19.43;;;16.53;;
11935;SDS011;6027;48.576;9.180;2022-11-30T04:58:50;18.93;;;16.27;;
11935;SDS011;6027;48.576;9.180;2022-11-30T05:01:15;20.38;;;16.83;;
11935;SDS011;6027;48.576;9.180;2022-11-30T05:03:41;19.90;;;15.90;;
11935;SDS011;6027;48.576;9.180;2022-11-30T05:06:06;20.30;;;16.30;;
11935;SDS011;6027;48.576;9.180;2022-11-30T05:08:31;18.65;;;16.25;;
11935;SDS011;6027;48.576;9.180;2022-11-30T05:10:57;19.47;;;16.23;;
11935;SDS011;6027;48.576;9.180;2022-11-30T05:13:23;18.57;;;15.47;;
11935;SDS011;6027;48.576;9.180;2022-11-30T05:15:50;22.87;;;16.13;;
11935;SDS011;6027;48.576;9.180;2022-11-30T05:18:17;21.73;;;16.47;;
11935;SDS011;6027;48.576;9.180;2022-11-30T05:20:50;18.57;;;15.27;;
11935;SDS011;6027;48.576;9.180;2022-11-30T05:23:17;17.88;;;15.35;;
11935;SDS011;6027;48.576;9.180;2022-11-30T05:25:44;18.83;;;15.43;;
11935;SDS011;6027;48.576;9.180;2022-11-30T05:28:10;18.83;;;14.63;;
11935;SDS011;6027;48.576;9.180;2022-11-30T05:30:39;18.97;;;15.10;;
11935;SDS011;6027;48.576;9.180;2022-11-30T05:33:06;17.93;;;14.37;;
11935;SDS011;6027;48.576;9.180;2022-11-30T05:35:32;18.67;;;15.90;;
11935;SDS011;6027;48.576;9.180;2022-11-30T05:37:57;19.00;;;15.40;;
11935;SDS011;6027;48.576;9.180;2022-11-30T05:40:23;22.73;;;17.07;;
11935;SDS011;6027;48.576;9.180;2022-11-30T05:42:56;19.87;;;16.37;;
11935;SDS011;6027;48.576;9.180;2022-11-30T05:45:23;25.10;;;18.30;;
11935;SDS011;6027;48.576;9.180;2022-11-30T05:47:49;21.13;;;16.83;;
11935;SDS011;6027;48.576;9.180;2022-11-30T05:50:14;18.60;;;15.23;;
11935;SDS011;6027;48.576;9.180;2022-11-30T05:52:40;17.87;;;14.97;;
11935;SDS011;6027;48.576;9.180;2022-11-30T05:55:05;20.00;;;15.20;;
11935;SDS011;6027;48.576;9.180;2022-11-30T05:57:34;19.60;;;14.90;;
11935;SDS011;6027;48.576;9.180;2022-11-30T06:00:01;17.87;;;15.90;;
11935;SDS011;6027;48.576;9.180;2022-11-30T06:02:28;17.27;;;14.00;;
11935;SDS011;6027;48.576;9.180;2022-11-30T06:04:53;18.07;;;14.97;;
11935;SDS011;6027;48.576;9.180;2022-11-30T06:07:19;18.87;;;15.23;;
11935;SDS011;6027;48.576;9.180;2022-11-30T06:09:44;16.33;;;14.17;;
11935;SDS011;6027;48.576;9.180;2022-11-30T06:12:09;17.70;;;14.67;;
11935;SDS011;6027;48.576;9.180;2022-11-30T06:14:35;18.17;;;14.67;;
11935;SDS011;6027;48.576;9.180;2022-11-30T06:17:00;18.60;;;15.47;;
11935;SDS011;6027;48.576;9.180;2022-11-30T06:19:26;17.20;;;14.47;;
11935;SDS011;6027;48.576;9.180;2022-11-30T06:21:51;20.27;;;14.37;;
11935;SDS011;6027;48.576;9.180;2022-11-30T06:24:17;20.10;;;15.63;;
11935;SDS011;6027;48.576;9.180;2022-11-30T06:26:42;17.70;;;14.82;;
11935;SDS011;6027;48.576;9.180;2022-11-30T06:29:08;17.13;;;14.27;;
11935;SDS011;6027;48.576;9.180;2022-11-30T06:31:37;20.70;;;16.73;;
11935;SDS011;6027;48.576;9.180;2022-11-30T06:34:02;29.97;;;25.70;;
11935;SDS011;6027;48.576;9.180;2022-11-30T06:36:28;24.73;;;21.15;;
11935;SDS011;6027;48.576;9.180;2022-11-30T06:38:55;17.90;;;15.90;;
11935;SDS011;6027;48.576;9.180;2022-11-30T06:41:20;19.03;;;15.57;;
11935;SDS011;6027;48.576;9.180;2022-11-30T06:43:46;20.63;;;16.70;;
11935;SDS011;6027;48.576;9.180;2022-11-30T06:46:12;17.83;;;15.27;;
11935;SDS011;6027;48.576;9.180;2022-11-30T06:48:38;17.87;;;15.07;;
11935;SDS011;6027;48.576;9.180;2022-11-30T06:51:04;17.30;;;15.40;;
11935;SDS011;6027;48.576;9.180;2022-11-30T06:53:30;21.33;;;16.10;;
11935;SDS011;6027;48.576;9.180;2022-11-30T06:55:55;21.27;;;16.50;;
11935;SDS011;6027;48.576;9.180;2022-11-30T06:58:21;19.93;;;15.73;;
11935;SDS011;6027;48.576;9.180;2022-11-30T07:00:46;20.70;;;15.43;;
11935;SDS011;6027;48.576;9.180;2022-11-30T07:03:12;20.33;;;16.27;;
11935;SDS011;6027;48.576;9.180;2022-11-30T07:05:39;21.07;;;16.47;;
11935;SDS011;6027;48.576;9.180;2022-11-30T07:08:07;14.30;;;12.33;;
11935;SDS011;6027;48.576;9.180;2022-11-30T07:10:37;17.57;;;14.53;;
11935;SDS011;6027;48.576;9.180;2022-11-30T07:13:03;20.95;;;14.55;;
11935;SDS011;6027;48.576;9.180;2022-11-30T07:15:28;18.20;;;15.60;;
11935;SDS011;6027;48.576;9.180;2022-11-30T07:17:54;17.90;;;15.73;;
11935;SDS011;6027;48.576;9.180;2022-11-30T07:20:19;20.60;;;15.20;;
11935;SDS011;6027;48.576;9.180;2022-11-30T07:22:45;18.90;;;15.38;;
11935;SDS011;6027;48.576;9.180;2022-11-30T07:25:10;17.80;;;15.27;;
11935;SDS011;6027;48.576;9.180;2022-11-30T07:27:54;18.85;;;14.80;;
11935;SDS011;6027;48.576;9.180;2022-11-30T07:30:20;17.55;;;15.02;;
11935;SDS011;6027;48.576;9.180;2022-11-30T07:32:45;17.80;;;14.60;;
11935;SDS011;6027;48.576;9.180;2022-11-30T07:35:11;17.30;;;15.20;;
11935;SDS011;6027;48.576;9.180;2022-11-30T07:37:36;20.30;;;14.53;;
11935;SDS011;6027;48.576;9.180;2022-11-30T07:40:02;19.07;;;15.53;;
11935;SDS011;6027;48.576;9.180;2022-11-30T07:42:29;18.87;;;15.07;;
11935;SDS011;6027;48.576;9.180;2022-11-30T07:44:55;19.37;;;15.33;;
11935;SDS011;6027;48.576;9.180;2022-11-30T07:47:21;17.60;;;15.33;;
11935;SDS011;6027;48.576;9.180;2022-11-30T07:49:46;17.07;;;15.07;;
11935;SDS011;6027;48.576;9.180;2022-11-30T07:52:11;18.38;;;15.13;;
11935;SDS011;6027;48.576;9.180;2022-11-30T07:54:37;19.27;;;15.40;;
11935;SDS011;6027;48.576;9.180;2022-11-30T07:57:02;19.60;;;15.15;;
11935;SDS011;6027;48.576;9.180;2022-11-30T07:59:28;18.20;;;15.33;;
11935;SDS011;6027;48.576;9.180;2022-11-30T08:01:53;19.60;;;15.40;;
11935;SDS011;6027;48.576;9.180;2022-11-30T08:04:19;20.63;;;16.13;;
11935;SDS011;6027;48.576;9.180;2022-11-30T08:06:49;17.60;;;15.20;;
11935;SDS011;6027;48.576;9.180;2022-11-30T08:09:14;17.53;;;14.33;;
11935;SDS011;6027;48.576;9.180;2022-11-30T08:11:40;17.50;;;14.27;;
11935;SDS011;6027;48.576;9.180;2022-11-30T08:14:06;13.20;;;11.30;;
11935;SDS011;6027;48.576;9.180;2022-11-30T08:16:33;15.63;;;13.20;;
11935;SDS011;6027;48.576;9.180;2022-11-30T08:19:02;18.02;;;14.60;;
11935;SDS011;6027;48.576;9.180;2022-11-30T08:21:28;17.30;;;13.60;;
11935;SDS011;6027;48.576;9.180;2022-11-30T08:23:55;15.43;;;13.40;;
11935;SDS011;6027;48.576;9.180;2022-11-30T08:26:22;17.60;;;14.33;;
11935;SDS011;6027;48.576;9.180;2022-11-30T08:28:53;15.13;;;13.07;;
11935;SDS011;6027;48.576;9.180;2022-11-30T08:31:27;18.07;;;14.37;;
11935;SDS011;6027;48.576;9.180;2022-11-30T08:34:04;16.98;;;14.07;;
11935;SDS011;6027;48.576;9.180;2022-11-30T08:36:32;18.87;;;14.63;;
11935;SDS011;6027;48.576;9.180;2022-11-30T08:38:59;16.40;;;14.07;;
11935;SDS011;6027;48.576;9.180;2022-11-30T08:41:26;17.47;;;14.17;;
11935;SDS011;6027;48.576;9.180;2022-11-30T08:43:52;16.73;;;14.70;;
11935;SDS011;6027;48.576;9.180;2022-11-30T08:46:19;17.85;;;14.65;;
11935;SDS011;6027;48.576;9.180;2022-11-30T08:48:46;18.83;;;14.47;;
11935;SDS011;6027;48.576;9.180;2022-11-30T08:51:13;15.47;;;13.13;;
11935;SDS011;6027;48.576;9.180;2022-11-30T08:53:40;16.33;;;13.80;;
11935;SDS011;6027;48.576;9.180;2022-11-30T08:56:07;15.67;;;13.87;;
11935;SDS011;6027;48.576;9.180;2022-11-30T08:58:36;17.17;;;13.90;;
11935;SDS011;6027;48.576;9.180;2022-11-30T09:01:06;15.40;;;12.97;;
11935;SDS011;6027;48.576;9.180;2022-11-30T09:03:37;15.03;;;12.97;;
11935;SDS011;6027;48.576;9.180;2022-11-30T09:06:04;17.00;;;13.67;;
11935;SDS011;6027;48.576;9.180;2022-11-30T09:08:32;16.27;;;13.53;;
11935;SDS011;6027;48.576;9.180;2022-11-30T09:11:05;16.33;;;14.33;;
11935;SDS011;6027;48.576;9.180;2022-11-30T09:13:32;16.73;;;15.00;;
11935;SDS011;6027;48.576;9.180;2022-11-30T09:15:57;19.47;;;15.10;;
11935;SDS011;6027;48.576;9.180;2022-11-30T09:18:23;15.40;;;13.60;;
11935;SDS011;6027;48.576;9.180;2022-11-30T09:20:48;16.33;;;13.73;;
11935;SDS011;6027;48.576;9.180;2022-11-30T09:23:13;15.10;;;13.23;;
11935;SDS011;6027;48.576;9.180;2022-11-30T09:25:39;15.90;;;13.00;;
11935;SDS011;6027;48.576;9.180;2022-11-30T09:28:04;14.10;;;11.50;;
11935;SDS011;6027;48.576;9.180;2022-11-30T09:30:30;17.03;;;11.20;;
11935;SDS011;6027;48.576;9.180;2022-11-30T09:32:55;13.43;;;10.50;;
11935;SDS011;6027;48.576;9.180;2022-11-30T09:35:24;12.47;;;11.17;;
11935;SDS011;6027;48.576;9.180;2022-11-30T09:37:49;13.20;;;10.23;;
11935;SDS011;6027;48.576;9.180;2022-11-30T09:40:14;13.67;;;10.87;;
11935;SDS011;6027;48.576;9.180;2022-11-30T09:43:27;12.83;;;11.50;;
11935;SDS011;6027;48.576;9.180;2022-11-30T09:45:48;13.10;;;11.67;;
11935;SDS011;6027;48.576;9.180;2022-11-30T09:48:20;14.40;;;11.60;;
11935;SDS011;6027;48.576;9.180;2022-11-30T09:50:57;13.40;;;11.80;;
11935;SDS011;6027;48.576;9.180;2022-11-30T09:53:39;13.50;;;11.20;;
11935;SDS011;6027;48.576;9.180;2022-11-30T09:56:18;13.90;;;12.30;;
11935;SDS011;6027;48.576;9.180;2022-11-30T09:58:53;13.40;;;11.77;;
11935;SDS011;6027;48.576;9.180;2022-11-30T10:01:23;15.07;;;13.07;;
11935;SDS011;6027;48.576;9.180;2022-11-30T10:03:49;11.77;;;10.57;;
11935;SDS011;6027;48.576;9.180;2022-11-30T10:06:25;13.80;;;11.53;;
11935;SDS011;6027;48.576;9.180;2022-11-30T10:09:01;16.27;;;13.97;;
11935;SDS011;6027;48.576;9.180;2022-11-30T10:12:08;14.67;;;13.17;;
11935;SDS011;6027;48.576;9.180;2022-11-30T10:14:47;16.83;;;14.57;;
11935;SDS011;6027;48.576;9.180;2022-11-30T10:31:33;18.40;;;15.33;;
11935;SDS011;6027;48.576;9.180;2022-11-30T10:34:02;22.80;;;17.17;;
11935;SDS011;6027;48.576;9.180;2022-11-30T10:42:20;14.97;;;12.00;;
11935;SDS011;6027;48.576;9.180;2022-11-30T10:45:13;15.23;;;13.57;;
11935;SDS011;6027;48.576;9.180;2022-11-30T10:47:42;16.97;;;14.67;;
11935;SDS011;6027;48.576;9.180;2022-11-30T10:50:15;16.87;;;13.93;;
11935;SDS011;6027;48.576;9.180;2022-11-30T10:52:50;14.53;;;12.83;;
11935;SDS011;6027;48.576;9.180;2022-11-30T10:55:22;14.17;;;12.50;;
11935;SDS011;6027;48.576;9.180;2022-11-30T10:57:53;13.13;;;11.67;;
11935;SDS011;6027;48.576;9.180;2022-11-30T11:00:29;16.27;;;13.17;;
11935;SDS011;6027;48.576;9.180;2022-11-30T11:02:54;16.63;;;13.10;;
11935;SDS011;6027;48.576;9.180;2022-11-30T11:05:24;15.40;;;13.47;;
11935;SDS011;6027;48.576;9.180;2022-11-30T11:08:01;15.03;;;12.63;;
11935;SDS011;6027;48.576;9.180;2022-11-30T11:13:08;15.00;;;12.50;;
11935;SDS011;6027;48.576;9.180;2022-11-30T11:15:41;12.47;;;11.17;;
11935;SDS011;6027;48.576;9.180;2022-11-30T11:18:25;14.13;;;11.93;;
11935;SDS011;6027;48.576;9.180;2022-11-30T11:23:38;18.20;;;14.83;;
11935;SDS011;6027;48.576;9.180;2022-11-30T11:26:06;17.03;;;14.20;;
11935;SDS011;6027;48.576;9.180;2022-11-30T11:28:46;20.33;;;15.33;;
11935;SDS011;6027;48.576;9.180;2022-11-30T11:31:15;18.10;;;15.57;;
11935;SDS011;6027;48.576;9.180;2022-11-30T11:33:48;16.93;;;15.10;;
11935;SDS011;6027;48.576;9.180;2022-11-30T11:36:25;16.83;;;14.70;;
11935;SDS011;6027;48.576;9.180;2022-11-30T11:38:53;18.47;;;16.40;;
11935;SDS011;6027;48.576;9.180;2022-11-30T11:46:50;21.85;;;17.17;;
11935;SDS011;6027;48.576;9.180;2022-11-30T11:49:21;16.80;;;14.95;;
11935;SDS011;6027;48.576;9.180;2022-11-30T11:57:12;18.57;;;16.27;;
11935;SDS011;6027;48.576;9.180;2022-11-30T11:59:53;18.07;;;15.03;;
11935;SDS011;6027;48.576;9.180;2022-11-30T12:02:31;18.67;;;16.13;;
11935;SDS011;6027;48.576;9.180;2022-11-30T12:05:08;22.20;;;16.33;;
11935;SDS011;6027;48.576;9.180;2022-11-30T12:10:31;18.30;;;15.52;;
11935;SDS011;6027;48.576;9.180;2022-11-30T12:13:08;18.03;;;15.73;;
11935;SDS011;6027;48.576;9.180;2022-11-30T12:16:06;21.10;;;17.20;;
11935;SDS011;6027;48.576;9.180;2022-11-30T12:43:51;17.47;;;15.10;;
11935;SDS011;6027;48.576;9.180;2022-11-30T12:46:33;17.23;;;14.60;;
11935;SDS011;6027;48.576;9.180;2022-11-30T12:52:02;16.50;;;13.67;;
11935;SDS011;6027;48.576;9.180;2022-11-30T12:54:36;16.10;;;14.40;;
11935;SDS011;6027;48.576;9.180;2022-11-30T13:00:11;16.93;;;15.13;;
11935;SDS011;6027;48.576;9.180;2022-11-30T13:07:51;15.17;;;13.57;;
11935;SDS011;6027;48.576;9.180;2022-11-30T13:10:42;16.87;;;14.60;;
11935;SDS011;6027;48.576;9.180;2022-11-30T13:13:16;15.07;;;13.33;;
11935;SDS011;6027;48.576;9.180;2022-11-30T13:15:49;16.60;;;12.90;;
11935;SDS011;6027;48.576;9.180;2022-11-30T13:18:19;15.67;;;13.17;;
11935;SDS011;6027;48.576;9.180;2022-11-30T13:32:20;13.57;;;12.07;;
11935;SDS011;6027;48.576;9.180;2022-11-30T13:34:46;13.37;;;11.67;;
11935;SDS011;6027;48.576;9.180;2022-11-30T13:37:20;14.40;;;12.30;;
11935;SDS011;6027;48.576;9.180;2022-11-30T13:39:50;13.93;;;12.53;;
11935;SDS011;6027;48.576;9.180;2022-11-30T13:44:57;14.23;;;12.73;;
11935;SDS011;6027;48.576;9.180;2022-11-30T13:47:47;15.70;;;12.70;;
11935;SDS011;6027;48.576;9.180;2022-11-30T13:58:10;14.00;;;12.50;;
11935;SDS011;6027;48.576;9.180;2022-11-30T14:03:22;14.20;;;12.53;;
11935;SDS011;6027;48.576;9.180;2022-11-30T14:05:51;14.30;;;12.70;;
11935;SDS011;6027;48.576;9.180;2022-11-30T14:10:53;16.87;;;12.67;;
11935;SDS011;6027;48.576;9.180;2022-11-30T14:13:39;14.90;;;13.17;;
11935;SDS011;6027;48.576;9.180;2022-11-30T14:16:18;15.63;;;13.70;;
11935;SDS011;6027;48.576;9.180;2022-11-30T14:18:47;16.57;;;14.60;;
11935;SDS011;6027;48.576;9.180;2022-11-30T14:21:23;20.83;;;16.77;;
11935;SDS011;6027;48.576;9.180;2022-11-30T14:26:45;15.50;;;13.87;;
11935;SDS011;6027;48.576;9.180;2022-11-30T14:29:15;17.47;;;14.30;;
11935;SDS011;6027;48.576;9.180;2022-11-30T14:36:47;17.63;;;15.80;;
11935;SDS011;6027;48.576;9.180;2022-11-30T14:41:57;18.30;;;15.70;;
11935;SDS011;6027;48.576;9.180;2022-11-30T14:44:23;18.47;;;16.10;;
11935;SDS011;6027;48.576;9.180;2022-11-30T14:46:48;18.30;;;15.60;;
11935;SDS011;6027;48.576;9.180;2022-11-30T14:49:15;13.40;;;12.00;;
11935;SDS011;6027;48.576;9.180;2022-11-30T14:51:50;13.63;;;11.93;;
11935;SDS011;6027;48.576;9.180;2022-11-30T14:56:52;13.33;;;10.67;;
11935;SDS011;6027;48.576;9.180;2022-11-30T15:02:13;15.57;;;11.50;;
11935;SDS011;6027;48.576;9.180;2022-11-30T15:04:45;16.00;;;12.27;;
11935;SDS011;6027;48.576;9.180;2022-11-30T15:07:12;16.97;;;12.63;;
11935;SDS011;6027;48.576;9.180;2022-11-30T15:09:39;15.07;;;12.80;;
11935;SDS011;6027;48.576;9.180;2022-11-30T15:12:07;15.60;;;12.53;;
11935;SDS011;6027;48.576;9.180;2022-11-30T15:14:33;18.67;;;14.50;;
11935;SDS011;6027;48.576;9.180;2022-11-30T15:19:33;16.83;;;12.77;;
11935;SDS011;6027;48.576;9.180;2022-11-30T15:22:00;17.23;;;13.03;;
11935;SDS011;6027;48.576;9.180;2022-11-30T15:24:26;14.43;;;10.00;;
11935;SDS011;6027;48.576;9.180;2022-11-30T15:29:27;14.77;;;11.80;;
11935;SDS011;6027;48.576;9.180;2022-11-30T15:32:00;13.20;;;10.60;;
11935;SDS011;6027;48.576;9.180;2022-11-30T15:34:31;13.33;;;10.73;;
11935;SDS011;6027;48.576;9.180;2022-11-30T15:37:03;14.10;;;11.93;;
11935;SDS011;6027;48.576;9.180;2022-11-30T15:39:29;13.37;;;11.50;;
11935;SDS011;6027;48.576;9.180;2022-11-30T15:41:57;13.83;;;12.30;;
11935;SDS011;6027;48.576;9.180;2022-11-30T15:47:02;15.97;;;13.83;;
11935;SDS011;6027;48.576;9.180;2022-11-30T15:49:31;17.10;;;13.47;;
11935;SDS011;6027;48.576;9.180;2022-11-30T15:54:45;14.77;;;11.70;;
11935;SDS011;6027;48.576;9.180;2022-11-30T15:57:12;12.43;;;11.13;;
11935;SDS011;6027;48.576;9.180;2022-11-30T15:59:38;12.47;;;9.93;;
11935;SDS011;6027;48.576;9.180;2022-11-30T16:02:04;11.83;;;10.20;;
11935;SDS011;6027;48.576;9.180;2022-11-30T16:07:29;15.03;;;11.97;;
11935;SDS011;6027;48.576;9.180;2022-11-30T16:10:06;15.53;;;12.40;;
11935;SDS011;6027;48.576;9.180;2022-11-30T16:12:42;13.53;;;11.17;;
11935;SDS011;6027;48.576;9.180;2022-11-30T16:17:45;13.07;;;9.70;;
11935;SDS011;6027;48.576;9.180;2022-11-30T16:20:11;15.07;;;11.43;;
11935;SDS011;6027;48.576;9.180;2022-11-30T16:22:44;12.10;;;10.47;;
11935;SDS011;6027;48.576;9.180;2022-11-30T16:25:11;11.83;;;10.07;;
11935;SDS011;6027;48.576;9.180;2022-11-30T16:27:45;13.83;;;10.63;;
11935;SDS011;6027;48.576;9.180;2022-11-30T16:30:30;12.77;;;11.33;;
11935;SDS011;6027;48.576;9.180;2022-11-30T16:32:56;14.53;;;12.03;;
11935;SDS011;6027;48.576;9.180;2022-11-30T16:35:28;12.87;;;11.20;;
11935;SDS011;6027;48.576;9.180;2022-11-30T16:37:56;14.87;;;12.63;;
11935;SDS011;6027;48.576;9.180;2022-11-30T16:40:21;19.27;;;16.20;;
11935;SDS011;6027;48.576;9.180;2022-11-30T16:42:47;19.40;;;16.07;;
11935;SDS011;6027;48.576;9.180;2022-11-30T16:45:21;13.93;;;11.30;;
11935;SDS011;6027;48.576;9.180;2022-11-30T16:47:48;12.57;;;9.73;;
11935;SDS011;6027;48.576;9.180;2022-11-30T16:50:15;14.10;;;10.20;;
11935;SDS011;6027;48.576;9.180;2022-11-30T16:52:41;12.40;;;10.20;;
11935;SDS011;6027;48.576;9.180;2022-11-30T16:55:14;12.10;;;10.60;;
11935;SDS011;6027;48.576;9.180;2022-11-30T16:57:44;13.53;;;11.17;;
11935;SDS011;6027;48.576;9.180;2022-11-30T17:00:11;12.10;;;10.47;;
11935;SDS011;6027;48.576;9.180;2022-11-30T17:02:58;13.50;;;10.17;;
11935;SDS011;6027;48.576;9.180;2022-11-30T17:05:28;11.53;;;9.80;;
11935;SDS011;6027;48.576;9.180;2022-11-30T17:07:55;9.50;;;8.47;;
11935;SDS011;6027;48.576;9.180;2022-11-30T17:10:20;10.43;;;8.40;;
11935;SDS011;6027;48.576;9.180;2022-11-30T17:12:46;9.40;;;8.20;;